sensor_id;sensor_type;location;lat;lon;timestamp;P1;durP1;ratioP1;P2;durP2;ratioP2
64022;SDS011;50264;52.088;5.296;2023-01-10T00:02:25;18.11;;;3.7;;
64022;SDS011;50264;52.088;5.296;2023-01-10T00:04:01;13.8;;;3.6;;
64022;SDS011;50264;52.088;5.296;2023-01-10T00:05:38;13.0;;;4.3;;
64022;SDS011;50264;52.088;5.296;2023-01-10T00:08:51;13.2;;;3.8;;
64022;SDS011;50264;52.088;5.296;2023-01-10T00:10:28;17.91;;;3.6;;
64022;SDS011;50264;52.088;5.296;2023-01-10T00:13:23;12.6;;;3.7;;
64022;SDS011;50264;52.088;5.296;2023-01-10T00:15:47;10.0;;;3.7;;
64022;SDS011;50264;52.088;5.296;2023-01-10T00:17:24;10.0;;;3.4;;
64022;SDS011;50264;52.088;5.296;2023-01-10T00:19:00;16.2;;;4.2;;
64022;SDS011;50264;52.088;5.296;2023-01-10T00:20:36;14.8;;;4.2;;
64022;SDS011;50264;52.088;5.296;2023-01-10T00:22:22;8.5;;;3.1;;
64022;SDS011;50264;52.088;5.296;2023-01-10T00:25:35;11.2;;;3.4;;
64022;SDS011;50264;52.088;5.296;2023-01-10T00:27:11;11.2;;;3.8;;
64022;SDS011;50264;52.088;5.296;2023-01-10T00:28:48;12.8;;;3.7;;
64022;SDS011;50264;52.088;5.296;2023-01-10T00:32:03;8.81;;;3.6;;
64022;SDS011;50264;52.088;5.296;2023-01-10T00:33:39;15.5;;;4.1;;
64022;SDS011;50264;52.088;5.296;2023-01-10T00:35:15;10.5;;;3.7;;
64022;SDS011;50264;52.088;5.296;2023-01-10T00:36:51;15.3;;;3.6;;
64022;SDS011;50264;52.088;5.296;2023-01-10T00:40:09;14.7;;;3.5;;
64022;SDS011;50264;52.088;5.296;2023-01-10T00:44:08;16.7;;;3.9;;
64022;SDS011;50264;52.088;5.296;2023-01-10T00:45:44;15.9;;;4.3;;
64022;SDS011;50264;52.088;5.296;2023-01-10T00:47:21;10.4;;;3.3;;
64022;SDS011;50264;52.088;5.296;2023-01-10T00:50:33;13.4;;;4.8;;
64022;SDS011;50264;52.088;5.296;2023-01-10T00:52:09;12.4;;;3.5;;
64022;SDS011;50264;52.088;5.296;2023-01-10T00:53:46;9.21;;;3.7;;
64022;SDS011;50264;52.088;5.296;2023-01-10T00:56:58;13.1;;;3.9;;
64022;SDS011;50264;52.088;5.296;2023-01-10T00:58:34;13.1;;;4.0;;
64022;SDS011;50264;52.088;5.296;2023-01-10T01:00:11;9.9;;;3.6;;
64022;SDS011;50264;52.088;5.296;2023-01-10T01:03:24;9.5;;;2.8;;
64022;SDS011;50264;52.088;5.296;2023-01-10T01:05:02;9.9;;;3.5;;
64022;SDS011;50264;52.088;5.296;2023-01-10T01:06:42;6.1;;;2.4;;
64022;SDS011;50264;52.088;5.296;2023-01-10T01:08:19;14.9;;;3.8;;
64022;SDS011;50264;52.088;5.296;2023-01-10T01:12:03;10.0;;;3.3;;
64022;SDS011;50264;52.088;5.296;2023-01-10T01:13:39;15.2;;;3.6;;
64022;SDS011;50264;52.088;5.296;2023-01-10T01:15:15;11.8;;;3.1;;
64022;SDS011;50264;52.088;5.296;2023-01-10T01:16:51;19.41;;;4.2;;
64022;SDS011;50264;52.088;5.296;2023-01-10T01:20:05;10.9;;;3.8;;
64022;SDS011;50264;52.088;5.296;2023-01-10T01:21:44;14.4;;;3.5;;
64022;SDS011;50264;52.088;5.296;2023-01-10T01:23:20;6.9;;;2.8;;
64022;SDS011;50264;52.088;5.296;2023-01-10T01:24:57;13.9;;;3.5;;
64022;SDS011;50264;52.088;5.296;2023-01-10T01:28:10;11.0;;;3.6;;
64022;SDS011;50264;52.088;5.296;2023-01-10T01:29:47;8.4;;;3.8;;
64022;SDS011;50264;52.088;5.296;2023-01-10T01:31:24;17.5;;;3.9;;
64022;SDS011;50264;52.088;5.296;2023-01-10T01:34:36;14.8;;;4.41;;
64022;SDS011;50264;52.088;5.296;2023-01-10T01:36:12;16.3;;;4.1;;
64022;SDS011;50264;52.088;5.296;2023-01-10T01:37:49;11.5;;;3.2;;
64022;SDS011;50264;52.088;5.296;2023-01-10T01:41:01;12.7;;;3.5;;
64022;SDS011;50264;52.088;5.296;2023-01-10T01:42:38;14.7;;;4.3;;
64022;SDS011;50264;52.088;5.296;2023-01-10T01:44:16;12.1;;;3.9;;
64022;SDS011;50264;52.088;5.296;2023-01-10T01:45:55;18.0;;;4.61;;
64022;SDS011;50264;52.088;5.296;2023-01-10T01:49:19;11.3;;;4.0;;
64022;SDS011;50264;52.088;5.296;2023-01-10T01:51:05;21.2;;;4.91;;
64022;SDS011;50264;52.088;5.296;2023-01-10T01:52:45;14.2;;;4.0;;
64022;SDS011;50264;52.088;5.296;2023-01-10T01:54:26;13.8;;;4.1;;
64022;SDS011;50264;52.088;5.296;2023-01-10T01:57:49;11.2;;;3.8;;
64022;SDS011;50264;52.088;5.296;2023-01-10T01:59:30;12.7;;;4.2;;
64022;SDS011;50264;52.088;5.296;2023-01-10T02:01:11;10.6;;;3.8;;
64022;SDS011;50264;52.088;5.296;2023-01-10T02:02:50;12.3;;;4.2;;
64022;SDS011;50264;52.088;5.296;2023-01-10T02:06:16;16.7;;;3.6;;
64022;SDS011;50264;52.088;5.296;2023-01-10T02:07:56;11.2;;;3.8;;
64022;SDS011;50264;52.088;5.296;2023-01-10T02:09:36;14.9;;;3.8;;
64022;SDS011;50264;52.088;5.296;2023-01-10T02:11:19;14.7;;;3.8;;
64022;SDS011;50264;52.088;5.296;2023-01-10T02:14:38;11.2;;;3.3;;
64022;SDS011;50264;52.088;5.296;2023-01-10T02:16:17;8.0;;;2.6;;
64022;SDS011;50264;52.088;5.296;2023-01-10T02:17:54;10.3;;;2.7;;
64022;SDS011;50264;52.088;5.296;2023-01-10T02:19:36;19.3;;;4.61;;
64022;SDS011;50264;52.088;5.296;2023-01-10T02:21:34;14.3;;;3.6;;
64022;SDS011;50264;52.088;5.296;2023-01-10T02:25:25;13.9;;;4.3;;
64022;SDS011;50264;52.088;5.296;2023-01-10T02:29:25;13.3;;;4.2;;
64022;SDS011;50264;52.088;5.296;2023-01-10T02:32:57;16.5;;;3.3;;
64022;SDS011;50264;52.088;5.296;2023-01-10T02:34:44;13.1;;;4.0;;
64022;SDS011;50264;52.088;5.296;2023-01-10T02:36:35;10.9;;;3.6;;
64022;SDS011;50264;52.088;5.296;2023-01-10T02:38:21;16.0;;;4.8;;
64022;SDS011;50264;52.088;5.296;2023-01-10T02:41:56;19.91;;;4.1;;
64022;SDS011;50264;52.088;5.296;2023-01-10T02:43:38;12.2;;;3.1;;
64022;SDS011;50264;52.088;5.296;2023-01-10T02:45:23;8.1;;;3.1;;
64022;SDS011;50264;52.088;5.296;2023-01-10T02:47:05;12.1;;;3.7;;
64022;SDS011;50264;52.088;5.296;2023-01-10T02:48:43;9.0;;;3.2;;
64022;SDS011;50264;52.088;5.296;2023-01-10T02:52:34;8.2;;;3.0;;
64022;SDS011;50264;52.088;5.296;2023-01-10T02:54:12;9.0;;;3.2;;
64022;SDS011;50264;52.088;5.296;2023-01-10T02:55:58;11.4;;;3.0;;
64022;SDS011;50264;52.088;5.296;2023-01-10T02:57:58;7.8;;;2.5;;
64022;SDS011;50264;52.088;5.296;2023-01-10T02:59:54;8.9;;;3.4;;
64022;SDS011;50264;52.088;5.296;2023-01-10T03:03:15;19.0;;;4.3;;
64022;SDS011;50264;52.088;5.296;2023-01-10T03:07:01;21.3;;;3.6;;
64022;SDS011;50264;52.088;5.296;2023-01-10T03:08:48;15.7;;;3.9;;
64022;SDS011;50264;52.088;5.296;2023-01-10T03:10:31;15.3;;;4.7;;
64022;SDS011;50264;52.088;5.296;2023-01-10T03:12:18;11.4;;;3.6;;
64022;SDS011;50264;52.088;5.296;2023-01-10T03:14:07;10.3;;;4.3;;
64022;SDS011;50264;52.088;5.296;2023-01-10T03:15:50;13.5;;;3.9;;
64022;SDS011;50264;52.088;5.296;2023-01-10T03:19:06;11.8;;;3.4;;
64022;SDS011;50264;52.088;5.296;2023-01-10T03:20:45;12.3;;;4.1;;
64022;SDS011;50264;52.088;5.296;2023-01-10T03:22:26;16.9;;;4.7;;
64022;SDS011;50264;52.088;5.296;2023-01-10T03:24:07;17.2;;;4.2;;
64022;SDS011;50264;52.088;5.296;2023-01-10T03:27:32;11.0;;;4.3;;
64022;SDS011;50264;52.088;5.296;2023-01-10T03:29:20;14.5;;;3.7;;
64022;SDS011;50264;52.088;5.296;2023-01-10T03:31:05;17.2;;;4.91;;
64022;SDS011;50264;52.088;5.296;2023-01-10T03:32:46;13.7;;;4.8;;
64022;SDS011;50264;52.088;5.296;2023-01-10T03:36:04;14.3;;;3.9;;
64022;SDS011;50264;52.088;5.296;2023-01-10T03:37:53;13.2;;;4.0;;
64022;SDS011;50264;52.088;5.296;2023-01-10T03:39:33;13.0;;;4.1;;
64022;SDS011;50264;52.088;5.296;2023-01-10T03:44:59;11.6;;;4.1;;
64022;SDS011;50264;52.088;5.296;2023-01-10T03:46:43;17.11;;;4.0;;
64022;SDS011;50264;52.088;5.296;2023-01-10T03:48:28;12.4;;;4.41;;
64022;SDS011;50264;52.088;5.296;2023-01-10T03:50:09;11.6;;;3.4;;
64022;SDS011;50264;52.088;5.296;2023-01-10T03:51:50;12.9;;;3.9;;
64022;SDS011;50264;52.088;5.296;2023-01-10T03:53:28;12.3;;;3.2;;
64022;SDS011;50264;52.088;5.296;2023-01-10T03:56:45;6.3;;;2.6;;
64022;SDS011;50264;52.088;5.296;2023-01-10T03:58:23;9.31;;;3.0;;
64022;SDS011;50264;52.088;5.296;2023-01-10T03:59:59;10.5;;;3.4;;
64022;SDS011;50264;52.088;5.296;2023-01-10T04:03:11;5.8;;;2.8;;
64022;SDS011;50264;52.088;5.296;2023-01-10T04:04:48;14.9;;;3.9;;
64022;SDS011;50264;52.088;5.296;2023-01-10T04:06:24;13.6;;;3.3;;
64022;SDS011;50264;52.088;5.296;2023-01-10T04:09:36;12.1;;;3.3;;
64022;SDS011;50264;52.088;5.296;2023-01-10T04:11:12;9.1;;;3.3;;
64022;SDS011;50264;52.088;5.296;2023-01-10T04:12:48;10.4;;;3.9;;
64022;SDS011;50264;52.088;5.296;2023-01-10T04:14:24;21.2;;;4.5;;
64022;SDS011;50264;52.088;5.296;2023-01-10T04:17:37;21.0;;;4.3;;
64022;SDS011;50264;52.088;5.296;2023-01-10T04:19:13;14.2;;;3.8;;
64022;SDS011;50264;52.088;5.296;2023-01-10T04:20:49;8.71;;;3.8;;
64022;SDS011;50264;52.088;5.296;2023-01-10T04:25:38;10.0;;;3.6;;
64022;SDS011;50264;52.088;5.296;2023-01-10T04:27:14;9.1;;;3.1;;
64022;SDS011;50264;52.088;5.296;2023-01-10T04:30:27;16.61;;;3.7;;
64022;SDS011;50264;52.088;5.296;2023-01-10T04:32:03;16.2;;;4.2;;
64022;SDS011;50264;52.088;5.296;2023-01-10T04:33:40;10.8;;;3.5;;
64022;SDS011;50264;52.088;5.296;2023-01-10T04:35:16;8.31;;;3.1;;
64022;SDS011;50264;52.088;5.296;2023-01-10T04:38:28;15.0;;;4.5;;
64022;SDS011;50264;52.088;5.296;2023-01-10T04:40:05;7.9;;;3.1;;
64022;SDS011;50264;52.088;5.296;2023-01-10T04:41:43;13.3;;;3.9;;
64022;SDS011;50264;52.088;5.296;2023-01-10T04:44:57;15.0;;;3.6;;
64022;SDS011;50264;52.088;5.296;2023-01-10T04:46:33;17.8;;;4.3;;
64022;SDS011;50264;52.088;5.296;2023-01-10T04:48:10;15.6;;;3.9;;
64022;SDS011;50264;52.088;5.296;2023-01-10T04:51:22;12.9;;;4.5;;
64022;SDS011;50264;52.088;5.296;2023-01-10T04:52:58;13.8;;;4.0;;
64022;SDS011;50264;52.088;5.296;2023-01-10T04:54:35;12.5;;;3.6;;
64022;SDS011;50264;52.088;5.296;2023-01-10T04:56:14;12.0;;;3.7;;
64022;SDS011;50264;52.088;5.296;2023-01-10T04:59:28;9.0;;;3.6;;
64022;SDS011;50264;52.088;5.296;2023-01-10T05:01:06;5.6;;;2.6;;
64022;SDS011;50264;52.088;5.296;2023-01-10T05:02:43;5.6;;;2.6;;
64022;SDS011;50264;52.088;5.296;2023-01-10T05:05:57;12.9;;;2.9;;
64022;SDS011;50264;52.088;5.296;2023-01-10T05:07:33;16.4;;;4.0;;
64022;SDS011;50264;52.088;5.296;2023-01-10T05:09:09;5.4;;;2.6;;
64022;SDS011;50264;52.088;5.296;2023-01-10T05:12:21;11.2;;;2.21;;
64022;SDS011;50264;52.088;5.296;2023-01-10T05:13:57;13.3;;;3.1;;
64022;SDS011;50264;52.088;5.296;2023-01-10T05:15:33;13.4;;;3.4;;
64022;SDS011;50264;52.088;5.296;2023-01-10T05:17:09;10.7;;;3.5;;
64022;SDS011;50264;52.088;5.296;2023-01-10T05:20:22;7.7;;;2.8;;
64022;SDS011;50264;52.088;5.296;2023-01-10T05:21:58;10.5;;;4.0;;
64022;SDS011;50264;52.088;5.296;2023-01-10T05:23:34;9.6;;;3.7;;
64022;SDS011;50264;52.088;5.296;2023-01-10T05:26:47;7.1;;;3.6;;
64022;SDS011;50264;52.088;5.296;2023-01-10T05:28:23;8.2;;;2.7;;
64022;SDS011;50264;52.088;5.296;2023-01-10T05:29:59;18.11;;;4.3;;
64022;SDS011;50264;52.088;5.296;2023-01-10T05:33:13;12.0;;;3.8;;
64022;SDS011;50264;52.088;5.296;2023-01-10T05:34:49;10.7;;;4.0;;
64022;SDS011;50264;52.088;5.296;2023-01-10T05:36:25;8.1;;;3.4;;
64022;SDS011;50264;52.088;5.296;2023-01-10T05:38:01;8.5;;;3.2;;
64022;SDS011;50264;52.088;5.296;2023-01-10T05:41:15;13.0;;;4.61;;
64022;SDS011;50264;52.088;5.296;2023-01-10T05:42:51;16.2;;;3.5;;
64022;SDS011;50264;52.088;5.296;2023-01-10T05:44:28;11.6;;;3.4;;
64022;SDS011;50264;52.088;5.296;2023-01-10T05:47:40;12.9;;;3.6;;
64022;SDS011;50264;52.088;5.296;2023-01-10T05:49:16;11.8;;;3.5;;
64022;SDS011;50264;52.088;5.296;2023-01-10T05:54:05;15.4;;;4.61;;
64022;SDS011;50264;52.088;5.296;2023-01-10T05:55:41;18.61;;;5.2;;
64022;SDS011;50264;52.088;5.296;2023-01-10T05:57:18;20.9;;;5.8;;
64022;SDS011;50264;52.088;5.296;2023-01-10T06:00:31;22.8;;;5.9;;
64022;SDS011;50264;52.088;5.296;2023-01-10T06:02:07;15.3;;;4.61;;
64022;SDS011;50264;52.088;5.296;2023-01-10T06:03:43;29.4;;;6.1;;
64022;SDS011;50264;52.088;5.296;2023-01-10T06:05:19;17.5;;;5.9;;
64022;SDS011;50264;52.088;5.296;2023-01-10T06:08:32;20.5;;;6.1;;
64022;SDS011;50264;52.088;5.296;2023-01-10T06:10:08;16.2;;;5.3;;
64022;SDS011;50264;52.088;5.296;2023-01-10T06:11:45;14.8;;;4.1;;
64022;SDS011;50264;52.088;5.296;2023-01-10T06:14:58;17.8;;;5.11;;
64022;SDS011;50264;52.088;5.296;2023-01-10T06:16:34;30.3;;;6.6;;
64022;SDS011;50264;52.088;5.296;2023-01-10T06:18:10;17.7;;;6.1;;
64022;SDS011;50264;52.088;5.296;2023-01-10T06:21:23;22.9;;;6.0;;
64022;SDS011;50264;52.088;5.296;2023-01-10T06:23:03;17.0;;;5.2;;
64022;SDS011;50264;52.088;5.296;2023-01-10T06:24:39;18.3;;;4.61;;
64022;SDS011;50264;52.088;5.296;2023-01-10T06:26:17;14.1;;;5.3;;
64022;SDS011;50264;52.088;5.296;2023-01-10T06:29:31;19.5;;;6.0;;
64022;SDS011;50264;52.088;5.296;2023-01-10T06:31:07;21.7;;;5.5;;
64022;SDS011;50264;52.088;5.296;2023-01-10T06:32:43;19.3;;;5.3;;
64022;SDS011;50264;52.088;5.296;2023-01-10T06:35:56;25.8;;;6.6;;
64022;SDS011;50264;52.088;5.296;2023-01-10T06:37:32;21.7;;;5.7;;
64022;SDS011;50264;52.088;5.296;2023-01-10T06:39:09;26.6;;;6.5;;
64022;SDS011;50264;52.088;5.296;2023-01-10T06:40:45;23.6;;;6.6;;
64022;SDS011;50264;52.088;5.296;2023-01-10T06:43:57;23.9;;;6.1;;
64022;SDS011;50264;52.088;5.296;2023-01-10T06:45:33;20.0;;;6.0;;
64022;SDS011;50264;52.088;5.296;2023-01-10T06:47:09;26.4;;;6.9;;
64022;SDS011;50264;52.088;5.296;2023-01-10T06:50:23;17.91;;;6.0;;
64022;SDS011;50264;52.088;5.296;2023-01-10T06:52:01;16.7;;;6.2;;
64022;SDS011;50264;52.088;5.296;2023-01-10T06:53:37;25.9;;;6.6;;
64022;SDS011;50264;52.088;5.296;2023-01-10T06:56:50;18.61;;;6.1;;
64022;SDS011;50264;52.088;5.296;2023-01-10T06:58:26;25.2;;;6.9;;
64022;SDS011;50264;52.088;5.296;2023-01-10T07:00:05;24.1;;;6.9;;
64022;SDS011;50264;52.088;5.296;2023-01-10T07:01:44;24.5;;;5.7;;
64022;SDS011;50264;52.088;5.296;2023-01-10T07:04:56;21.0;;;6.6;;
64022;SDS011;50264;52.088;5.296;2023-01-10T07:06:35;22.5;;;6.3;;
64022;SDS011;50264;52.088;5.296;2023-01-10T07:08:11;27.6;;;7.7;;
64022;SDS011;50264;52.088;5.296;2023-01-10T07:11:23;26.7;;;7.3;;
64022;SDS011;50264;52.088;5.296;2023-01-10T07:13:00;19.0;;;5.8;;
64022;SDS011;50264;52.088;5.296;2023-01-10T07:14:36;30.3;;;7.8;;
64022;SDS011;50264;52.088;5.296;2023-01-10T07:17:51;22.1;;;7.1;;
64022;SDS011;50264;52.088;5.296;2023-01-10T07:19:27;29.0;;;5.8;;
64022;SDS011;50264;52.088;5.296;2023-01-10T07:21:03;18.61;;;6.0;;
64022;SDS011;50264;52.088;5.296;2023-01-10T07:22:40;18.8;;;6.5;;
64022;SDS011;50264;52.088;5.296;2023-01-10T07:25:53;23.9;;;6.7;;
64022;SDS011;50264;52.088;5.296;2023-01-10T07:27:29;21.3;;;6.1;;
64022;SDS011;50264;52.088;5.296;2023-01-10T07:29:06;19.5;;;6.4;;
64022;SDS011;50264;52.088;5.296;2023-01-10T07:32:18;24.4;;;6.7;;
64022;SDS011;50264;52.088;5.296;2023-01-10T07:33:54;25.1;;;6.6;;
64022;SDS011;50264;52.088;5.296;2023-01-10T07:35:30;20.5;;;6.3;;
64022;SDS011;50264;52.088;5.296;2023-01-10T07:38:43;20.7;;;6.9;;
64022;SDS011;50264;52.088;5.296;2023-01-10T07:40:19;16.8;;;6.0;;
64022;SDS011;50264;52.088;5.296;2023-01-10T07:41:55;19.5;;;6.2;;
64022;SDS011;50264;52.088;5.296;2023-01-10T07:43:31;27.9;;;6.3;;
64022;SDS011;50264;52.088;5.296;2023-01-10T07:46:45;25.0;;;7.1;;
64022;SDS011;50264;52.088;5.296;2023-01-10T07:48:21;24.3;;;7.2;;
64022;SDS011;50264;52.088;5.296;2023-01-10T07:49:57;22.6;;;7.2;;
64022;SDS011;50264;52.088;5.296;2023-01-10T07:53:10;24.3;;;7.7;;
64022;SDS011;50264;52.088;5.296;2023-01-10T07:54:47;26.0;;;7.8;;
64022;SDS011;50264;52.088;5.296;2023-01-10T07:56:23;26.3;;;7.8;;
64022;SDS011;50264;52.088;5.296;2023-01-10T07:59:37;28.8;;;7.9;;
64022;SDS011;50264;52.088;5.296;2023-01-10T08:01:13;34.1;;;8.1;;
64022;SDS011;50264;52.088;5.296;2023-01-10T08:02:52;24.8;;;8.1;;
64022;SDS011;50264;52.088;5.296;2023-01-10T08:04:29;26.8;;;7.6;;
64022;SDS011;50264;52.088;5.296;2023-01-10T08:07:44;23.5;;;8.4;;
64022;SDS011;50264;52.088;5.296;2023-01-10T08:09:20;22.9;;;7.7;;
64022;SDS011;50264;52.088;5.296;2023-01-10T08:10:58;26.6;;;8.2;;
64022;SDS011;50264;52.088;5.296;2023-01-10T08:14:11;28.9;;;7.4;;
64022;SDS011;50264;52.088;5.296;2023-01-10T08:15:49;28.9;;;7.4;;
64022;SDS011;50264;52.088;5.296;2023-01-10T08:17:27;24.1;;;8.2;;
64022;SDS011;50264;52.088;5.296;2023-01-10T08:20:39;25.8;;;8.2;;
64022;SDS011;50264;52.088;5.296;2023-01-10T08:22:16;27.4;;;8.71;;
64022;SDS011;50264;52.088;5.296;2023-01-10T08:23:52;27.4;;;8.71;;
64022;SDS011;50264;52.088;5.296;2023-01-10T08:25:29;24.1;;;8.4;;
64022;SDS011;50264;52.088;5.296;2023-01-10T08:28:41;23.5;;;7.7;;
64022;SDS011;50264;52.088;5.296;2023-01-10T08:30:18;24.7;;;7.2;;
64022;SDS011;50264;52.088;5.296;2023-01-10T08:31:54;22.6;;;7.5;;
64022;SDS011;50264;52.088;5.296;2023-01-10T08:35:08;30.0;;;7.6;;
64022;SDS011;50264;52.088;5.296;2023-01-10T08:36:48;23.2;;;8.0;;
64022;SDS011;50264;52.088;5.296;2023-01-10T08:38:24;22.5;;;8.31;;
64022;SDS011;50264;52.088;5.296;2023-01-10T08:40:01;19.8;;;7.5;;
64022;SDS011;50264;52.088;5.296;2023-01-10T08:43:15;27.2;;;8.5;;
64022;SDS011;50264;52.088;5.296;2023-01-10T08:44:51;31.3;;;8.9;;
64022;SDS011;50264;52.088;5.296;2023-01-10T08:46:27;26.4;;;8.71;;
64022;SDS011;50264;52.088;5.296;2023-01-10T08:49:41;26.8;;;8.1;;
64022;SDS011;50264;52.088;5.296;2023-01-10T08:51:17;23.7;;;8.0;;
64022;SDS011;50264;52.088;5.296;2023-01-10T08:52:56;24.4;;;7.6;;
64022;SDS011;50264;52.088;5.296;2023-01-10T08:56:09;22.1;;;7.1;;
64022;SDS011;50264;52.088;5.296;2023-01-10T08:57:46;31.0;;;8.71;;
64022;SDS011;50264;52.088;5.296;2023-01-10T08:59:22;24.9;;;8.4;;
64022;SDS011;50264;52.088;5.296;2023-01-10T09:00:58;26.2;;;8.6;;
64022;SDS011;50264;52.088;5.296;2023-01-10T09:04:14;24.3;;;7.7;;
64022;SDS011;50264;52.088;5.296;2023-01-10T09:05:51;25.7;;;7.8;;
64022;SDS011;50264;52.088;5.296;2023-01-10T09:07:27;22.8;;;7.8;;
64022;SDS011;50264;52.088;5.296;2023-01-10T09:10:40;23.9;;;7.6;;
64022;SDS011;50264;52.088;5.296;2023-01-10T09:13:20;23.4;;;7.4;;
64022;SDS011;50264;52.088;5.296;2023-01-10T09:14:56;22.4;;;8.1;;
64022;SDS011;50264;52.088;5.296;2023-01-10T09:16:32;23.3;;;7.8;;
64022;SDS011;50264;52.088;5.296;2023-01-10T09:18:09;26.8;;;7.2;;
64022;SDS011;50264;52.088;5.296;2023-01-10T09:19:47;26.3;;;7.7;;
64022;SDS011;50264;52.088;5.296;2023-01-10T09:23:04;21.3;;;7.0;;
64022;SDS011;50264;52.088;5.296;2023-01-10T09:24:42;29.8;;;8.4;;
64022;SDS011;50264;52.088;5.296;2023-01-10T09:26:19;30.1;;;8.4;;
64022;SDS011;50264;52.088;5.296;2023-01-10T09:29:33;23.9;;;7.4;;
64022;SDS011;50264;52.088;5.296;2023-01-10T09:31:10;18.5;;;6.8;;
64022;SDS011;50264;52.088;5.296;2023-01-10T09:32:48;28.5;;;8.6;;
64022;SDS011;50264;52.088;5.296;2023-01-10T09:34:25;20.2;;;7.1;;
64022;SDS011;50264;52.088;5.296;2023-01-10T09:37:38;21.6;;;7.4;;
64022;SDS011;50264;52.088;5.296;2023-01-10T09:39:14;20.8;;;7.1;;
64022;SDS011;50264;52.088;5.296;2023-01-10T09:40:54;35.71;;;8.31;;
64022;SDS011;50264;52.088;5.296;2023-01-10T09:42:51;19.61;;;7.2;;
64022;SDS011;50264;52.088;5.296;2023-01-10T09:46:31;28.9;;;8.0;;
64022;SDS011;50264;52.088;5.296;2023-01-10T09:48:19;25.3;;;7.7;;
64022;SDS011;50264;52.088;5.296;2023-01-10T09:50:04;28.4;;;7.1;;
64022;SDS011;50264;52.088;5.296;2023-01-10T09:51:52;24.3;;;6.4;;
64022;SDS011;50264;52.088;5.296;2023-01-10T09:53:32;21.2;;;7.2;;
64022;SDS011;50264;52.088;5.296;2023-01-10T09:57:01;20.2;;;7.3;;
64022;SDS011;50264;52.088;5.296;2023-01-10T09:58:39;21.1;;;7.8;;
64022;SDS011;50264;52.088;5.296;2023-01-10T10:00:18;26.9;;;7.2;;
64022;SDS011;50264;52.088;5.296;2023-01-10T10:01:59;27.1;;;7.4;;
64022;SDS011;50264;52.088;5.296;2023-01-10T10:03:52;26.3;;;7.2;;
64022;SDS011;50264;52.088;5.296;2023-01-10T10:07:13;23.3;;;7.4;;
64022;SDS011;50264;52.088;5.296;2023-01-10T10:08:49;24.2;;;6.9;;
64022;SDS011;50264;52.088;5.296;2023-01-10T10:10:30;24.3;;;7.4;;
64022;SDS011;50264;52.088;5.296;2023-01-10T10:12:18;23.5;;;7.0;;
64022;SDS011;50264;52.088;5.296;2023-01-10T10:15:57;19.61;;;7.2;;
64022;SDS011;50264;52.088;5.296;2023-01-10T10:17:46;19.3;;;7.4;;
64022;SDS011;50264;52.088;5.296;2023-01-10T10:19:33;24.7;;;7.0;;
64022;SDS011;50264;52.088;5.296;2023-01-10T10:21:26;22.4;;;6.6;;
64022;SDS011;50264;52.088;5.296;2023-01-10T10:23:15;23.2;;;6.3;;
64022;SDS011;50264;52.088;5.296;2023-01-10T10:25:10;14.0;;;5.8;;
64022;SDS011;50264;52.088;5.296;2023-01-10T10:26:58;18.11;;;6.5;;
64022;SDS011;50264;52.088;5.296;2023-01-10T10:31:48;26.7;;;6.8;;
64022;SDS011;50264;52.088;5.296;2023-01-10T10:33:48;23.0;;;6.8;;
64022;SDS011;50264;52.088;5.296;2023-01-10T10:35:37;23.0;;;6.5;;
64022;SDS011;50264;52.088;5.296;2023-01-10T10:37:19;24.6;;;8.0;;
64022;SDS011;50264;52.088;5.296;2023-01-10T10:40:39;19.5;;;6.0;;
64022;SDS011;50264;52.088;5.296;2023-01-10T10:42:19;21.6;;;7.3;;
64022;SDS011;50264;52.088;5.296;2023-01-10T10:43:57;27.0;;;6.7;;
64022;SDS011;50264;52.088;5.296;2023-01-10T10:45:40;27.2;;;6.2;;
64022;SDS011;50264;52.088;5.296;2023-01-10T10:48:58;15.5;;;5.9;;
64022;SDS011;50264;52.088;5.296;2023-01-10T10:50:45;24.7;;;6.3;;
64022;SDS011;50264;52.088;5.296;2023-01-10T10:52:30;18.5;;;5.8;;
64022;SDS011;50264;52.088;5.296;2023-01-10T10:54:10;15.3;;;5.5;;
64022;SDS011;50264;52.088;5.296;2023-01-10T10:57:26;19.61;;;5.7;;
64022;SDS011;50264;52.088;5.296;2023-01-10T10:59:04;21.7;;;6.4;;
64022;SDS011;50264;52.088;5.296;2023-01-10T11:00:41;24.4;;;5.8;;
64022;SDS011;50264;52.088;5.296;2023-01-10T11:02:21;22.8;;;6.6;;
64022;SDS011;50264;52.088;5.296;2023-01-10T11:05:41;23.0;;;6.5;;
64022;SDS011;50264;52.088;5.296;2023-01-10T11:07:21;23.7;;;6.7;;
64022;SDS011;50264;52.088;5.296;2023-01-10T11:09:00;18.8;;;5.5;;
64022;SDS011;50264;52.088;5.296;2023-01-10T11:10:40;22.4;;;6.9;;
64022;SDS011;50264;52.088;5.296;2023-01-10T11:14:08;19.11;;;5.4;;
64022;SDS011;50264;52.088;5.296;2023-01-10T11:15:47;20.7;;;5.4;;
64022;SDS011;50264;52.088;5.296;2023-01-10T11:17:25;17.0;;;6.2;;
64022;SDS011;50264;52.088;5.296;2023-01-10T11:19:09;17.8;;;5.8;;
64022;SDS011;50264;52.088;5.296;2023-01-10T11:22:37;22.4;;;6.0;;
64022;SDS011;50264;52.088;5.296;2023-01-10T11:24:22;20.9;;;6.4;;
64022;SDS011;50264;52.088;5.296;2023-01-10T11:26:02;18.11;;;6.4;;
64022;SDS011;50264;52.088;5.296;2023-01-10T11:27:42;29.6;;;6.4;;
64022;SDS011;50264;52.088;5.296;2023-01-10T11:31:01;16.4;;;6.0;;
64022;SDS011;50264;52.088;5.296;2023-01-10T11:32:39;16.4;;;5.7;;
64022;SDS011;50264;52.088;5.296;2023-01-10T11:34:27;22.5;;;6.1;;
64022;SDS011;50264;52.088;5.296;2023-01-10T11:36:08;16.61;;;5.8;;
64022;SDS011;50264;52.088;5.296;2023-01-10T11:39:34;17.41;;;6.0;;
64022;SDS011;50264;52.088;5.296;2023-01-10T11:41:21;20.5;;;5.6;;
64022;SDS011;50264;52.088;5.296;2023-01-10T11:43:01;18.3;;;5.9;;
64022;SDS011;50264;52.088;5.296;2023-01-10T11:45:13;25.4;;;6.0;;
64022;SDS011;50264;52.088;5.296;2023-01-10T11:47:00;22.7;;;6.4;;
64022;SDS011;50264;52.088;5.296;2023-01-10T11:48:45;16.8;;;5.8;;
64022;SDS011;50264;52.088;5.296;2023-01-10T11:50:27;16.3;;;5.6;;
64022;SDS011;50264;52.088;5.296;2023-01-10T11:53:59;18.7;;;5.9;;
64022;SDS011;50264;52.088;5.296;2023-01-10T11:55:37;20.6;;;6.2;;
64022;SDS011;50264;52.088;5.296;2023-01-10T11:57:14;24.0;;;5.9;;
64022;SDS011;50264;52.088;5.296;2023-01-10T11:58:54;20.11;;;5.2;;
64022;SDS011;50264;52.088;5.296;2023-01-10T12:02:16;21.5;;;6.0;;
64022;SDS011;50264;52.088;5.296;2023-01-10T12:03:58;15.1;;;5.3;;
64022;SDS011;50264;52.088;5.296;2023-01-10T12:05:36;24.7;;;6.0;;
64022;SDS011;50264;52.088;5.296;2023-01-10T12:07:12;20.0;;;6.2;;
64022;SDS011;50264;52.088;5.296;2023-01-10T12:10:31;20.0;;;5.8;;
64022;SDS011;50264;52.088;5.296;2023-01-10T12:12:13;25.2;;;5.6;;
64022;SDS011;50264;52.088;5.296;2023-01-10T12:13:57;15.8;;;5.5;;
64022;SDS011;50264;52.088;5.296;2023-01-10T12:15:36;19.41;;;5.4;;
64022;SDS011;50264;52.088;5.296;2023-01-10T12:19:00;19.3;;;5.2;;
64022;SDS011;50264;52.088;5.296;2023-01-10T12:20:41;16.61;;;5.11;;
64022;SDS011;50264;52.088;5.296;2023-01-10T12:22:23;14.8;;;5.5;;
64022;SDS011;50264;52.088;5.296;2023-01-10T12:24:09;18.3;;;5.3;;
64022;SDS011;50264;52.088;5.296;2023-01-10T12:27:34;20.2;;;5.6;;
64022;SDS011;50264;52.088;5.296;2023-01-10T12:29:10;15.0;;;5.2;;
64022;SDS011;50264;52.088;5.296;2023-01-10T12:30:56;19.3;;;5.7;;
64022;SDS011;50264;52.088;5.296;2023-01-10T12:32:37;16.2;;;5.0;;
64022;SDS011;50264;52.088;5.296;2023-01-10T12:34:20;22.2;;;6.2;;
64022;SDS011;50264;52.088;5.296;2023-01-10T12:37:52;15.4;;;5.7;;
64022;SDS011;50264;52.088;5.296;2023-01-10T12:39:38;13.2;;;5.11;;
64022;SDS011;50264;52.088;5.296;2023-01-10T12:44:11;13.6;;;5.3;;
64022;SDS011;50264;52.088;5.296;2023-01-10T12:44:15;18.0;;;5.5;;
64022;SDS011;50264;52.088;5.296;2023-01-10T12:45:58;19.5;;;5.11;;
64022;SDS011;50264;52.088;5.296;2023-01-10T12:47:49;22.2;;;5.6;;
64022;SDS011;50264;52.088;5.296;2023-01-10T12:49:33;18.8;;;5.0;;
64022;SDS011;50264;52.088;5.296;2023-01-10T12:51:18;19.11;;;5.7;;
64022;SDS011;50264;52.088;5.296;2023-01-10T12:54:41;21.0;;;5.3;;
64022;SDS011;50264;52.088;5.296;2023-01-10T12:56:21;16.4;;;5.11;;
64022;SDS011;50264;52.088;5.296;2023-01-10T12:57:58;15.9;;;5.7;;
64022;SDS011;50264;52.088;5.296;2023-01-10T12:59:39;19.7;;;5.4;;
64022;SDS011;50264;52.088;5.296;2023-01-10T13:03:08;23.3;;;5.3;;
64022;SDS011;50264;52.088;5.296;2023-01-10T13:04:49;18.0;;;6.0;;